sensor_id;sensor_type;location;lat;lon;timestamp;pressure;altitude;pressure_sealevel;temperature;humidity
47785;BME280;35233;55.686;37.848;2023-05-11T00:00:27;100427.25;;;13.80;42.80
47785;BME280;35233;55.686;37.848;2023-05-11T00:02:53;100422.91;;;13.77;43.11
47785;BME280;35233;55.686;37.848;2023-05-11T00:05:18;100409.81;;;13.70;42.88
47785;BME280;35233;55.686;37.848;2023-05-11T00:07:44;100409.75;;;13.73;42.85
47785;BME280;35233;55.686;37.848;2023-05-11T00:10:10;100424.63;;;13.78;43.53
47785;BME280;35233;55.686;37.848;2023-05-11T00:12:35;100388.09;;;13.57;43.12
47785;BME280;35233;55.686;37.848;2023-05-11T00:15:01;100415.00;;;13.76;43.00
47785;BME280;35233;55.686;37.848;2023-05-11T00:17:27;100406.31;;;13.69;43.15
47785;BME280;35233;55.686;37.848;2023-05-11T00:19:52;100412.34;;;13.76;43.37
47785;BME280;35233;55.686;37.848;2023-05-11T00:22:18;100419.41;;;13.75;43.06
47785;BME280;35233;55.686;37.848;2023-05-11T00:24:43;100415.00;;;13.76;43.33
47785;BME280;35233;55.686;37.848;2023-05-11T00:27:08;100417.66;;;13.76;42.94
47785;BME280;35233;55.686;37.848;2023-05-11T00:29:34;100415.88;;;13.75;43.21
47785;BME280;35233;55.686;37.848;2023-05-11T00:32:00;100422.97;;;13.74;42.80
47785;BME280;35233;55.686;37.848;2023-05-11T00:34:25;100423.84;;;13.75;43.03
47785;BME280;35233;55.686;37.848;2023-05-11T00:36:51;100422.13;;;13.74;43.00
47785;BME280;35233;55.686;37.848;2023-05-11T00:39:16;100423.91;;;13.73;43.18
47785;BME280;35233;55.686;37.848;2023-05-11T00:41:42;100421.28;;;13.72;43.77
47785;BME280;35233;55.686;37.848;2023-05-11T00:44:08;100418.69;;;13.70;43.08
47785;BME280;35233;55.686;37.848;2023-05-11T00:46:33;100422.22;;;13.71;43.34
47785;BME280;35233;55.686;37.848;2023-05-11T00:48:59;100415.22;;;13.67;43.65
47785;BME280;35233;55.686;37.848;2023-05-11T00:51:24;100427.56;;;13.69;43.09
47785;BME280;35233;55.686;37.848;2023-05-11T00:53:50;100416.34;;;13.59;43.50
47785;BME280;35233;55.686;37.848;2023-05-11T00:56:16;100436.38;;;13.70;43.63
47785;BME280;35233;55.686;37.848;2023-05-11T00:58:41;100433.81;;;13.67;43.61
47785;BME280;35233;55.686;37.848;2023-05-11T01:01:07;100435.66;;;13.65;43.63
47785;BME280;35233;55.686;37.848;2023-05-11T01:03:33;100430.25;;;13.68;43.79
47785;BME280;35233;55.686;37.848;2023-05-11T01:09:02;100433.88;;;13.65;43.79
47785;BME280;35233;55.686;37.848;2023-05-11T01:14:38;100424.31;;;13.58;43.80
47785;BME280;35233;55.686;37.848;2023-05-11T01:17:09;100440.13;;;13.63;43.52
47785;BME280;35233;55.686;37.848;2023-05-11T01:19:45;100434.81;;;13.63;43.64
47785;BME280;35233;55.686;37.848;2023-05-11T01:22:27;100436.56;;;13.64;43.72
47785;BME280;35233;55.686;37.848;2023-05-11T01:25:17;100441.06;;;13.62;44.02
47785;BME280;35233;55.686;37.848;2023-05-11T01:30:27;100441.94;;;13.62;44.03
47785;BME280;35233;55.686;37.848;2023-05-11T01:32:55;100430.44;;;13.62;43.69
47785;BME280;35233;55.686;37.848;2023-05-11T01:35:24;100428.78;;;13.57;44.21
47785;BME280;35233;55.686;37.848;2023-05-11T01:37:56;100436.66;;;13.61;44.22
47785;BME280;35233;55.686;37.848;2023-05-11T01:40:26;100439.28;;;13.62;44.20
47785;BME280;35233;55.686;37.848;2023-05-11T01:43:07;100427.91;;;13.57;43.31
47785;BME280;35233;55.686;37.848;2023-05-11T01:45:38;100433.22;;;13.57;43.17
47785;BME280;35233;55.686;37.848;2023-05-11T01:48:10;100430.47;;;13.60;43.93
47785;BME280;35233;55.686;37.848;2023-05-11T01:50:38;100437.59;;;13.58;43.70
47785;BME280;35233;55.686;37.848;2023-05-11T01:53:05;100430.59;;;13.55;43.69
47785;BME280;35233;55.686;37.848;2023-05-11T01:55:33;100426.03;;;13.61;43.56
47785;BME280;35233;55.686;37.848;2023-05-11T01:58:03;100437.56;;;13.59;44.19
47785;BME280;35233;55.686;37.848;2023-05-11T02:00:31;100428.75;;;13.59;43.65
47785;BME280;35233;55.686;37.848;2023-05-11T02:02:59;100431.34;;;13.61;43.38
47785;BME280;35233;55.686;37.848;2023-05-11T02:05:27;100435.78;;;13.60;43.65
47785;BME280;35233;55.686;37.848;2023-05-11T02:07:55;100433.19;;;13.58;44.29
47785;BME280;35233;55.686;37.848;2023-05-11T02:10:24;100426.97;;;13.58;44.01
47785;BME280;35233;55.686;37.848;2023-05-11T02:12:52;100435.78;;;13.60;44.40
47785;BME280;35233;55.686;37.848;2023-05-11T02:15:19;100434.00;;;13.61;43.86
47785;BME280;35233;55.686;37.848;2023-05-11T02:17:45;100431.44;;;13.57;43.64
47785;BME280;35233;55.686;37.848;2023-05-11T02:20:12;100428.84;;;13.54;43.76
47785;BME280;35233;55.686;37.848;2023-05-11T02:22:38;100433.22;;;13.57;43.68
47785;BME280;35233;55.686;37.848;2023-05-11T02:25:07;100427.94;;;13.55;43.69
47785;BME280;35233;55.686;37.848;2023-05-11T02:27:32;100440.16;;;13.61;43.80
47785;BME280;35233;55.686;37.848;2023-05-11T02:30:01;100438.41;;;13.62;43.67
47785;BME280;35233;55.686;37.848;2023-05-11T02:32:27;100428.84;;;13.54;43.72
47785;BME280;35233;55.686;37.848;2023-05-11T02:35:00;100433.19;;;13.58;43.68
47785;BME280;35233;55.686;37.848;2023-05-11T02:37:29;100432.25;;;13.59;43.49
47785;BME280;35233;55.686;37.848;2023-05-11T02:40:01;100439.28;;;13.62;44.06
47785;BME280;35233;55.686;37.848;2023-05-11T02:42:27;100433.91;;;13.64;44.15
47785;BME280;35233;55.686;37.848;2023-05-11T02:45:00;100440.97;;;13.65;43.56
47785;BME280;35233;55.686;37.848;2023-05-11T02:47:29;100441.84;;;13.65;44.01
47785;BME280;35233;55.686;37.848;2023-05-11T02:49:58;100446.22;;;13.66;43.38
47785;BME280;35233;55.686;37.848;2023-05-11T02:52:27;100430.59;;;13.55;43.69
47785;BME280;35233;55.686;37.848;2023-05-11T02:54:53;100445.34;;;13.66;43.70
47785;BME280;35233;55.686;37.848;2023-05-11T02:57:21;100451.50;;;13.68;43.31
47785;BME280;35233;55.686;37.848;2023-05-11T02:59:48;100447.06;;;13.68;43.72
47785;BME280;35233;55.686;37.848;2023-05-11T03:02:14;100441.75;;;13.68;43.37
47785;BME280;35233;55.686;37.848;2023-05-11T03:04:39;100440.88;;;13.68;43.49
47785;BME280;35233;55.686;37.848;2023-05-11T03:07:05;100453.16;;;13.72;43.32
47785;BME280;35233;55.686;37.848;2023-05-11T03:09:33;100446.13;;;13.69;43.60
47785;BME280;35233;55.686;37.848;2023-05-11T03:12:00;100457.50;;;13.74;43.77
47785;BME280;35233;55.686;37.848;2023-05-11T03:14:26;100456.59;;;13.75;43.59
47785;BME280;35233;55.686;37.848;2023-05-11T03:16:52;100460.06;;;13.77;44.11
47785;BME280;35233;55.686;37.848;2023-05-11T03:19:19;100465.34;;;13.79;43.42
47785;BME280;35233;55.686;37.848;2023-05-11T03:21:45;100461.78;;;13.80;43.36
47785;BME280;35233;55.686;37.848;2023-05-11T03:24:11;100466.06;;;13.84;43.37
47785;BME280;35233;55.686;37.848;2023-05-11T03:26:38;100468.63;;;13.87;43.24
47785;BME280;35233;55.686;37.848;2023-05-11T03:29:06;100467.69;;;13.90;43.60
47785;BME280;35233;55.686;37.848;2023-05-11T03:31:33;100478.28;;;13.91;43.20
47785;BME280;35233;55.686;37.848;2023-05-11T03:33:58;100465.84;;;13.93;43.67
47785;BME280;35233;55.686;37.848;2023-05-11T03:36:25;100469.28;;;13.95;43.23
47785;BME280;35233;55.686;37.848;2023-05-11T03:38:53;100468.41;;;13.96;43.73
47785;BME280;35233;55.686;37.848;2023-05-11T03:41:22;100474.47;;;14.00;43.23
47785;BME280;35233;55.686;37.848;2023-05-11T03:43:51;100465.75;;;13.96;43.52
47785;BME280;35233;55.686;37.848;2023-05-11T03:46:19;100472.63;;;14.02;42.64
47785;BME280;35233;55.686;37.848;2023-05-11T03:48:45;100478.78;;;14.04;43.31
47785;BME280;35233;55.686;37.848;2023-05-11T03:51:12;100466.44;;;14.01;42.73
47785;BME280;35233;55.686;37.848;2023-05-11T03:53:38;100477.72;;;14.10;42.96
47785;BME280;35233;55.686;37.848;2023-05-11T03:56:04;100477.63;;;14.13;42.86
47785;BME280;35233;55.686;37.848;2023-05-11T03:58:32;100480.19;;;14.16;42.81
47785;BME280;35233;55.686;37.848;2023-05-11T04:00:58;100477.50;;;14.17;42.63
47785;BME280;35233;55.686;37.848;2023-05-11T04:03:23;100475.72;;;14.18;42.75
47785;BME280;35233;55.686;37.848;2023-05-11T04:05:49;100481.78;;;14.23;42.34
47785;BME280;35233;55.686;37.848;2023-05-11T04:08:14;100477.25;;;14.25;42.55
47785;BME280;35233;55.686;37.848;2023-05-11T04:10:40;100483.41;;;14.27;42.89
47785;BME280;35233;55.686;37.848;2023-05-11T04:13:06;100477.16;;;14.28;42.94
47785;BME280;35233;55.686;37.848;2023-05-11T04:15:31;100469.28;;;14.25;42.57
47785;BME280;35233;55.686;37.848;2023-05-11T04:17:57;100476.13;;;14.34;42.87
47785;BME280;35233;55.686;37.848;2023-05-11T04:20:23;100483.03;;;14.39;42.32
47785;BME280;35233;55.686;37.848;2023-05-11T04:22:48;100491.75;;;14.44;42.17
47785;BME280;35233;55.686;37.848;2023-05-11T04:25:14;100481.19;;;14.43;41.90
47785;BME280;35233;55.686;37.848;2023-05-11T04:27:40;100488.72;;;14.57;42.17
47785;BME280;35233;55.686;37.848;2023-05-11T04:30:06;100493.19;;;14.56;42.33
47785;BME280;35233;55.686;37.848;2023-05-11T04:32:32;100497.78;;;14.49;43.04
47785;BME280;35233;55.686;37.848;2023-05-11T04:34:57;100498.97;;;14.39;42.59
47785;BME280;35233;55.686;37.848;2023-05-11T04:37:23;100502.53;;;14.40;43.20
47785;BME280;35233;55.686;37.848;2023-05-11T04:39:49;100497.25;;;14.38;42.92
47785;BME280;35233;55.686;37.848;2023-05-11T04:42:15;100496.13;;;14.45;42.96
47785;BME280;35233;55.686;37.848;2023-05-11T04:44:40;100508.81;;;14.67;42.09
47785;BME280;35233;55.686;37.848;2023-05-11T04:47:06;100506.59;;;14.81;41.83
47785;BME280;35233;55.686;37.848;2023-05-11T04:49:31;100513.53;;;14.85;41.84
47785;BME280;35233;55.686;37.848;2023-05-11T04:51:57;100495.13;;;14.79;42.10
47785;BME280;35233;55.686;37.848;2023-05-11T04:54:22;100504.03;;;14.78;41.90
47785;BME280;35233;55.686;37.848;2023-05-11T04:56:47;100493.59;;;14.72;42.04
47785;BME280;35233;55.686;37.848;2023-05-11T04:59:13;100499.59;;;14.77;41.98
47785;BME280;35233;55.686;37.848;2023-05-11T05:01:39;100498.41;;;14.87;41.85
47785;BME280;35233;55.686;37.848;2023-05-11T05:04:04;100499.91;;;14.96;41.87
47785;BME280;35233;55.686;37.848;2023-05-11T05:06:30;100494.41;;;15.01;41.94
47785;BME280;35233;55.686;37.848;2023-05-11T05:08:56;100491.72;;;15.02;41.58
47785;BME280;35233;55.686;37.848;2023-05-11T05:11:22;100491.72;;;15.02;41.87
47785;BME280;35233;55.686;37.848;2023-05-11T05:13:48;100495.13;;;15.06;41.77
47785;BME280;35233;55.686;37.848;2023-05-11T05:16:14;100494.13;;;15.10;41.65
47785;BME280;35233;55.686;37.848;2023-05-11T05:18:39;100490.63;;;15.08;41.69
47785;BME280;35233;55.686;37.848;2023-05-11T05:21:07;100487.91;;;15.09;41.53
47785;BME280;35233;55.686;37.848;2023-05-11T05:23:33;100487.81;;;15.12;41.57
47785;BME280;35233;55.686;37.848;2023-05-11T05:25:58;100470.19;;;15.10;41.74
47785;BME280;35233;55.686;37.848;2023-05-11T05:28:24;100477.94;;;15.16;41.73
47785;BME280;35233;55.686;37.848;2023-05-11T05:30:49;100477.88;;;15.17;41.71
47785;BME280;35233;55.686;37.848;2023-05-11T05:33:15;100477.94;;;15.16;41.69
47785;BME280;35233;55.686;37.848;2023-05-11T05:35:40;100487.34;;;15.26;41.50
47785;BME280;35233;55.686;37.848;2023-05-11T05:38:08;100489.69;;;15.35;41.58
47785;BME280;35233;55.686;37.848;2023-05-11T05:40:33;100497.38;;;15.45;41.52
47785;BME280;35233;55.686;37.848;2023-05-11T05:43:02;100496.13;;;15.55;41.09
47785;BME280;35233;55.686;37.848;2023-05-11T05:45:27;100490.34;;;15.67;40.74
47785;BME280;35233;55.686;37.848;2023-05-11T05:47:53;100489.19;;;15.76;40.68
47785;BME280;35233;55.686;37.848;2023-05-11T05:50:18;100483.06;;;15.74;40.72
47785;BME280;35233;55.686;37.848;2023-05-11T05:52:44;100488.63;;;15.66;40.80
47785;BME280;35233;55.686;37.848;2023-05-11T05:55:09;100486.94;;;15.63;41.17
47785;BME280;35233;55.686;37.848;2023-05-11T05:57:35;100483.56;;;15.58;41.17
47785;BME280;35233;55.686;37.848;2023-05-11T06:00:00;100488.53;;;15.69;41.08
47785;BME280;35233;55.686;37.848;2023-05-11T06:02:26;100477.72;;;15.74;41.21
47785;BME280;35233;55.686;37.848;2023-05-11T06:04:51;100471.19;;;15.82;41.04
47785;BME280;35233;55.686;37.848;2023-05-11T06:07:17;100492.75;;;16.00;40.53
47785;BME280;35233;55.686;37.848;2023-05-11T06:10:01;100487.13;;;16.07;40.76
47785;BME280;35233;55.686;37.848;2023-05-11T06:12:27;100483.44;;;16.12;40.28
47785;BME280;35233;55.686;37.848;2023-05-11T06:14:52;100481.50;;;16.15;40.29
47785;BME280;35233;55.686;37.848;2023-05-11T06:17:17;100486.59;;;16.21;40.51
47785;BME280;35233;55.686;37.848;2023-05-11T06:19:43;100486.78;;;16.17;40.41
47785;BME280;35233;55.686;37.848;2023-05-11T06:22:08;100487.31;;;16.26;40.48
47785;BME280;35233;55.686;37.848;2023-05-11T06:24:34;100495.44;;;16.23;40.64
47785;BME280;35233;55.686;37.848;2023-05-11T06:26:59;100491.06;;;16.21;40.53
47785;BME280;35233;55.686;37.848;2023-05-11T06:29:25;100494.66;;;16.20;40.38
47785;BME280;35233;55.686;37.848;2023-05-11T06:31:50;100498.25;;;16.19;40.59
47785;BME280;35233;55.686;37.848;2023-05-11T06:34:20;100490.53;;;16.11;40.63
47785;BME280;35233;55.686;37.848;2023-05-11T06:36:46;100487.81;;;16.13;40.62
47785;BME280;35233;55.686;37.848;2023-05-11T06:39:34;100504.69;;;16.13;40.41
47785;BME280;35233;55.686;37.848;2023-05-11T06:41:59;100485.44;;;16.05;40.71
47785;BME280;35233;55.686;37.848;2023-05-11T06:44:25;100504.56;;;16.16;40.54
47785;BME280;35233;55.686;37.848;2023-05-11T06:46:50;100486.84;;;16.15;40.81
47785;BME280;35233;55.686;37.848;2023-05-11T06:49:16;100491.81;;;16.24;40.40
47785;BME280;35233;55.686;37.848;2023-05-11T06:51:41;100494.00;;;16.37;40.58
47785;BME280;35233;55.686;37.848;2023-05-11T06:54:07;100500.03;;;16.42;40.06
47785;BME280;35233;55.686;37.848;2023-05-11T06:56:32;100488.44;;;16.43;40.43
47785;BME280;35233;55.686;37.848;2023-05-11T06:58:59;100496.25;;;16.47;40.22
47785;BME280;35233;55.686;37.848;2023-05-11T07:01:24;100493.97;;;16.60;40.39
47785;BME280;35233;55.686;37.848;2023-05-11T07:03:53;100499.31;;;16.60;40.19
47785;BME280;35233;55.686;37.848;2023-05-11T07:09:02;100502.84;;;16.61;39.96
47785;BME280;35233;55.686;37.848;2023-05-11T07:11:29;100499.31;;;16.60;40.14
47785;BME280;35233;55.686;37.848;2023-05-11T07:16:39;100502.47;;;16.48;40.39
47785;BME280;35233;55.686;37.848;2023-05-11T07:19:05;100493.66;;;16.46;40.14
47785;BME280;35233;55.686;37.848;2023-05-11T07:21:34;100496.97;;;16.52;40.21
47785;BME280;35233;55.686;37.848;2023-05-11T07:24:00;100486.22;;;16.54;40.21
47785;BME280;35233;55.686;37.848;2023-05-11T07:26:25;100491.75;;;16.71;39.78
47785;BME280;35233;55.686;37.848;2023-05-11T07:28:51;100493.38;;;16.75;40.21
47785;BME280;35233;55.686;37.848;2023-05-11T07:31:16;100493.47;;;16.72;40.34
47785;BME280;35233;55.686;37.848;2023-05-11T07:33:42;100491.00;;;16.68;40.36
47785;BME280;35233;55.686;37.848;2023-05-11T07:36:07;100489.28;;;16.67;40.10
47785;BME280;35233;55.686;37.848;2023-05-11T07:38:33;100486.41;;;16.71;40.35
47785;BME280;35233;55.686;37.848;2023-05-11T07:40:59;100489.72;;;16.78;40.16
47785;BME280;35233;55.686;37.848;2023-05-11T07:43:24;100477.94;;;16.84;40.22
47785;BME280;35233;55.686;37.848;2023-05-11T07:45:51;100491.97;;;16.89;40.24
47785;BME280;35233;55.686;37.848;2023-05-11T07:48:16;100489.25;;;16.90;40.27
47785;BME280;35233;55.686;37.848;2023-05-11T07:50:42;100494.75;;;16.86;40.47
47785;BME280;35233;55.686;37.848;2023-05-11T07:53:08;100489.50;;;16.84;39.85
47785;BME280;35233;55.686;37.848;2023-05-11T07:55:34;100478.88;;;16.83;39.95
47785;BME280;35233;55.686;37.848;2023-05-11T07:57:59;100488.31;;;16.91;40.01
47785;BME280;35233;55.686;37.848;2023-05-11T08:00:25;100490.97;;;16.91;40.40
47785;BME280;35233;55.686;37.848;2023-05-11T08:02:51;100490.84;;;16.94;40.43
47785;BME280;35233;55.686;37.848;2023-05-11T08:05:18;100484.75;;;17.13;40.02
47785;BME280;35233;55.686;37.848;2023-05-11T08:07:44;100483.47;;;17.22;39.34
47785;BME280;35233;55.686;37.848;2023-05-11T08:10:28;100471.81;;;17.24;39.25
47785;BME280;35233;55.686;37.848;2023-05-11T08:12:53;100473.16;;;17.14;40.11
47785;BME280;35233;55.686;37.848;2023-05-11T08:15:19;100473.28;;;17.11;39.78
47785;BME280;35233;55.686;37.848;2023-05-11T08:17:45;100474.06;;;17.13;40.29
47785;BME280;35233;55.686;37.848;2023-05-11T08:20:11;100477.06;;;17.05;40.00
47785;BME280;35233;55.686;37.848;2023-05-11T08:22:36;100481.84;;;16.97;40.17
47785;BME280;35233;55.686;37.848;2023-05-11T08:25:02;100478.63;;;16.89;40.26
47785;BME280;35233;55.686;37.848;2023-05-11T08:27:28;100479.63;;;16.86;40.85
47785;BME280;35233;55.686;37.848;2023-05-11T08:29:54;100485.06;;;16.83;40.52
47785;BME280;35233;55.686;37.848;2023-05-11T08:32:19;100487.81;;;16.82;40.93
47785;BME280;35233;55.686;37.848;2023-05-11T08:34:45;100472.59;;;16.84;40.30
47785;BME280;35233;55.686;37.848;2023-05-11T08:39:55;100473.09;;;16.93;40.71
47785;BME280;35233;55.686;37.848;2023-05-11T08:42:40;100475.38;;;17.03;40.35
47785;BME280;35233;55.686;37.848;2023-05-11T08:45:10;100482.75;;;17.18;40.42
47785;BME280;35233;55.686;37.848;2023-05-11T08:47:36;100464.72;;;17.23;40.00
47785;BME280;35233;55.686;37.848;2023-05-11T08:50:02;100472.94;;;17.39;39.40
47785;BME280;35233;55.686;37.848;2023-05-11T08:52:29;100454.66;;;17.30;39.81
47785;BME280;35233;55.686;37.848;2023-05-11T08:54:55;100466.59;;;17.41;40.05
47785;BME280;35233;55.686;37.848;2023-05-11T08:57:25;100465.41;;;17.49;39.57
47785;BME280;35233;55.686;37.848;2023-05-11T08:59:53;100455.31;;;17.55;39.22
47785;BME280;35233;55.686;37.848;2023-05-11T09:02:19;100451.91;;;17.52;39.49
47785;BME280;35233;55.686;37.848;2023-05-11T09:04:48;100450.03;;;17.54;39.89
47785;BME280;35233;55.686;37.848;2023-05-11T09:07:14;100443.53;;;17.59;39.76
47785;BME280;35233;55.686;37.848;2023-05-11T09:09:41;100428.84;;;17.70;39.38
47785;BME280;35233;55.686;37.848;2023-05-11T09:12:08;100422.03;;;17.83;39.08
47785;BME280;35233;55.686;37.848;2023-05-11T09:14:34;100427.59;;;17.97;38.94
47785;BME280;35233;55.686;37.848;2023-05-11T09:17:03;100420.25;;;18.02;38.65
47785;BME280;35233;55.686;37.848;2023-05-11T09:19:29;100423.06;;;17.99;39.29
47785;BME280;35233;55.686;37.848;2023-05-11T09:21:55;100416.03;;;17.97;39.19
47785;BME280;35233;55.686;37.848;2023-05-11T09:24:23;100429.56;;;17.94;39.27
47785;BME280;35233;55.686;37.848;2023-05-11T09:26:50;100430.38;;;17.96;39.23
47785;BME280;35233;55.686;37.848;2023-05-11T09:29:30;100425.88;;;17.96;39.55
47785;BME280;35233;55.686;37.848;2023-05-11T09:31:56;100423.88;;;18.01;39.65
47785;BME280;35233;55.686;37.848;2023-05-11T09:34:22;100370.84;;;17.92;38.88
47785;BME280;35233;55.686;37.848;2023-05-11T09:36:53;100412.53;;;18.15;38.77
47785;BME280;35233;55.686;37.848;2023-05-11T09:39:34;100413.91;;;18.24;39.03
47785;BME280;35233;55.686;37.848;2023-05-11T09:42:20;100407.25;;;18.32;38.78
47785;BME280;35233;55.686;37.848;2023-05-11T09:44:46;100406.19;;;18.35;38.79
47785;BME280;35233;55.686;37.848;2023-05-11T09:47:19;100397.25;;;18.36;39.02
47785;BME280;35233;55.686;37.848;2023-05-11T09:49:52;100391.44;;;18.45;38.43
47785;BME280;35233;55.686;37.848;2023-05-11T09:52:18;100385.78;;;18.51;38.41
47785;BME280;35233;55.686;37.848;2023-05-11T09:54:54;100382.41;;;18.48;38.52
47785;BME280;35233;55.686;37.848;2023-05-11T09:57:27;100351.13;;;18.31;38.63
47785;BME280;35233;55.686;37.848;2023-05-11T09:59:55;100387.34;;;18.55;38.42
47785;BME280;35233;55.686;37.848;2023-05-11T10:02:27;100376.09;;;18.49;38.68
47785;BME280;35233;55.686;37.848;2023-05-11T10:04:55;100384.38;;;18.44;39.07
47785;BME280;35233;55.686;37.848;2023-05-11T10:07:31;100378.22;;;18.42;38.78
47785;BME280;35233;55.686;37.848;2023-05-11T10:10:02;100381.66;;;18.27;39.11
47785;BME280;35233;55.686;37.848;2023-05-11T10:12:29;100396.19;;;18.21;39.22
47785;BME280;35233;55.686;37.848;2023-05-11T10:15:05;100391.84;;;18.00;39.63
47785;BME280;35233;55.686;37.848;2023-05-11T10:17:31;100403.31;;;17.83;40.25
47785;BME280;35233;55.686;37.848;2023-05-11T10:19:58;100400.31;;;17.70;39.86
47785;BME280;35233;55.686;37.848;2023-05-11T10:22:25;100404.38;;;17.60;40.04
47785;BME280;35233;55.686;37.848;2023-05-11T10:24:52;100396.97;;;17.46;40.17
47785;BME280;35233;55.686;37.848;2023-05-11T10:27:19;100423.81;;;17.43;40.32
47785;BME280;35233;55.686;37.848;2023-05-11T10:29:46;100426.69;;;17.38;40.19
47785;BME280;35233;55.686;37.848;2023-05-11T10:32:13;100436.53;;;17.36;40.37
47785;BME280;35233;55.686;37.848;2023-05-11T10:34:40;100441.44;;;17.27;40.50
47785;BME280;35233;55.686;37.848;2023-05-11T10:37:07;100461.84;;;17.28;40.25
47785;BME280;35233;55.686;37.848;2023-05-11T10:39:36;100430.22;;;17.39;40.19
47785;BME280;35233;55.686;37.848;2023-05-11T11:01:25;100443.28;;;17.65;40.34
47785;BME280;35233;55.686;37.848;2023-05-11T11:04:01;100428.31;;;17.82;39.95
47785;BME280;35233;55.686;37.848;2023-05-11T11:06:42;100435.56;;;17.99;40.05
47785;BME280;35233;55.686;37.848;2023-05-11T11:09:12;100430.75;;;18.07;39.58
47785;BME280;35233;55.686;37.848;2023-05-11T11:11:40;100444.31;;;18.21;39.13
47785;BME280;35233;55.686;37.848;2023-05-11T11:14:08;100443.78;;;18.32;39.21
47785;BME280;35233;55.686;37.848;2023-05-11T11:16:35;100445.25;;;18.39;38.86
47785;BME280;35233;55.686;37.848;2023-05-11T11:22:04;100456.16;;;18.53;38.81
47785;BME280;35233;55.686;37.848;2023-05-11T11:27:02;100453.19;;;18.41;39.56
47785;BME280;35233;55.686;37.848;2023-05-11T11:29:29;100440.34;;;18.30;39.41
47785;BME280;35233;55.686;37.848;2023-05-11T11:34:47;100451.38;;;18.03;39.73
47785;BME280;35233;55.686;37.848;2023-05-11T11:37:14;100428.13;;;17.86;40.28
47785;BME280;35233;55.686;37.848;2023-05-11T11:42:14;100427.00;;;17.72;40.72
47785;BME280;35233;55.686;37.848;2023-05-11T11:44:40;100426.31;;;17.67;40.57
47785;BME280;35233;55.686;37.848;2023-05-11T11:47:22;100416.44;;;17.69;40.09
47785;BME280;35233;55.686;37.848;2023-05-11T11:49:53;100411.81;;;17.72;40.63
47785;BME280;35233;55.686;37.848;2023-05-11T11:54:58;100398.19;;;17.78;40.35
47785;BME280;35233;55.686;37.848;2023-05-11T11:59:59;100395.25;;;17.84;40.31
47785;BME280;35233;55.686;37.848;2023-05-11T12:02:26;100398.28;;;17.96;40.07
47785;BME280;35233;55.686;37.848;2023-05-11T12:05:11;100394.16;;;18.07;40.04
47785;BME280;35233;55.686;37.848;2023-05-11T12:07:44;100387.72;;;18.12;39.59
47785;BME280;35233;55.686;37.848;2023-05-11T12:10:12;100377.47;;;18.21;39.74
47785;BME280;35233;55.686;37.848;2023-05-11T12:12:38;100387.41;;;18.37;39.38
47785;BME280;35233;55.686;37.848;2023-05-11T12:15:05;100383.41;;;18.45;39.24
47785;BME280;35233;55.686;37.848;2023-05-11T12:17:32;100384.38;;;18.44;39.55
47785;BME280;35233;55.686;37.848;2023-05-11T12:20:13;100383.22;;;18.31;39.80
47785;BME280;35233;55.686;37.848;2023-05-11T12:22:39;100381.31;;;18.16;39.72
47785;BME280;35233;55.686;37.848;2023-05-11T12:25:06;100376.88;;;18.15;39.58
47785;BME280;35233;55.686;37.848;2023-05-11T12:27:32;100382.66;;;18.24;39.46
47785;BME280;35233;55.686;37.848;2023-05-11T12:29:58;100387.47;;;18.35;39.41
47785;BME280;35233;55.686;37.848;2023-05-11T12:32:28;100387.13;;;18.43;39.20
47785;BME280;35233;55.686;37.848;2023-05-11T12:35:01;100386.66;;;18.52;39.24
47785;BME280;35233;55.686;37.848;2023-05-11T12:37:34;100384.47;;;18.60;38.83
47785;BME280;35233;55.686;37.848;2023-05-11T12:40:00;100380.13;;;18.58;39.16
47785;BME280;35233;55.686;37.848;2023-05-11T12:42:25;100380.13;;;18.58;39.29
47785;BME280;35233;55.686;37.848;2023-05-11T12:44:52;100384.63;;;18.57;39.08
47785;BME280;35233;55.686;37.848;2023-05-11T12:47:18;100379.66;;;18.67;39.37
47785;BME280;35233;55.686;37.848;2023-05-11T12:49:44;100386.34;;;18.77;38.88
47785;BME280;35233;55.686;37.848;2023-05-11T12:52:12;100373.97;;;18.92;38.92
47785;BME280;35233;55.686;37.848;2023-05-11T12:54:39;100369.09;;;18.83;38.71
47785;BME280;35233;55.686;37.848;2023-05-11T12:57:22;100368.03;;;18.68;38.90
47785;BME280;35233;55.686;37.848;2023-05-11T12:59:48;100351.97;;;18.50;39.30
47785;BME280;35233;55.686;37.848;2023-05-11T13:02:26;100368.00;;;18.50;39.67
47785;BME280;35233;55.686;37.848;2023-05-11T13:04:51;100364.69;;;18.45;39.66
47785;BME280;35233;55.686;37.848;2023-05-11T13:07:26;100356.19;;;18.37;39.66
47785;BME280;35233;55.686;37.848;2023-05-11T13:09:57;100359.66;;;18.39;39.52
47785;BME280;35233;55.686;37.848;2023-05-11T13:12:23;100361.22;;;18.43;39.70
47785;BME280;35233;55.686;37.848;2023-05-11T13:17:36;100367.38;;;18.45;39.55
47785;BME280;35233;55.686;37.848;2023-05-11T13:20:20;100369.06;;;18.65;39.63
47785;BME280;35233;55.686;37.848;2023-05-11T13:22:48;100356.31;;;18.70;39.28
47785;BME280;35233;55.686;37.848;2023-05-11T13:25:15;100359.00;;;18.88;39.05
47785;BME280;35233;55.686;37.848;2023-05-11T13:27:41;100363.50;;;19.05;39.08
47785;BME280;35233;55.686;37.848;2023-05-11T13:30:08;100348.28;;;19.05;38.76
47785;BME280;35233;55.686;37.848;2023-05-11T13:32:33;100342.22;;;19.19;38.45
47785;BME280;35233;55.686;37.848;2023-05-11T13:35:02;100336.03;;;19.34;38.45
47785;BME280;35233;55.686;37.848;2023-05-11T13:37:28;100351.59;;;19.61;38.36